createdAt,value
2023-03-22T00:01:36.769Z,11.70
2023-03-22T00:04:03.544Z,11.60
2023-03-22T00:06:30.215Z,11.60
2023-03-22T00:08:56.917Z,11.60
2023-03-22T00:11:27.182Z,11.50
2023-03-22T00:13:54.732Z,11.50
2023-03-22T00:16:22.027Z,11.50
2023-03-22T00:18:48.764Z,11.50
2023-03-22T00:21:16.665Z,11.40
2023-03-22T00:23:44.124Z,11.40
2023-03-22T00:26:12.353Z,11.40
2023-03-22T00:28:39.530Z,11.40
2023-03-22T00:31:06.823Z,11.30
2023-03-22T00:33:33.719Z,11.30
2023-03-22T00:36:11.161Z,11.30
2023-03-22T00:38:42.884Z,11.30
2023-03-22T00:41:11.532Z,11.30
2023-03-22T00:43:38.722Z,11.20
2023-03-22T00:46:06.147Z,11.20
2023-03-22T00:48:33.336Z,11.20
2023-03-22T00:51:00.170Z,11.20
2023-03-22T00:53:28.998Z,11.20
2023-03-22T00:55:57.318Z,11.10
2023-03-22T00:58:24.068Z,11.10
2023-03-22T01:00:51.098Z,11.10
2023-03-22T01:03:17.794Z,11.10
2023-03-22T01:05:49.493Z,11.10
2023-03-22T01:08:16.763Z,11.00
2023-03-22T01:10:44.460Z,11.00
2023-03-22T01:13:12.461Z,11.00
2023-03-22T01:15:39.308Z,10.90
2023-03-22T01:18:07.497Z,10.90
2023-03-22T01:20:34.508Z,11.00
2023-03-22T01:23:01.234Z,10.90
2023-03-22T01:25:28.105Z,10.90
2023-03-22T01:27:54.712Z,10.90
2023-03-22T01:30:21.347Z,10.90
2023-03-22T01:32:47.994Z,10.90
2023-03-22T01:35:14.655Z,10.80
2023-03-22T01:37:41.558Z,10.80
2023-03-22T01:40:10.074Z,10.80
2023-03-22T01:42:36.981Z,10.80
2023-03-22T01:45:16.579Z,10.80
2023-03-22T01:47:52.094Z,10.70
2023-03-22T01:50:19.833Z,10.70
2023-03-22T01:52:47.448Z,10.70
2023-03-22T01:55:14.330Z,10.70
2023-03-22T01:57:42.490Z,10.70
2023-03-22T02:00:15.584Z,10.70
2023-03-22T02:02:48.350Z,10.70
2023-03-22T02:05:16.013Z,10.60
2023-03-22T02:07:43.345Z,10.60
2023-03-22T02:10:16.121Z,10.60
2023-03-22T02:12:57.559Z,10.60
2023-03-22T02:15:55.975Z,10.60
2023-03-22T02:18:32.677Z,10.50
2023-03-22T02:21:28.790Z,10.50
2023-03-22T02:24:19.120Z,10.50
2023-03-22T02:27:06.470Z,10.50
2023-03-22T02:29:53.241Z,10.50
2023-03-22T02:32:53.701Z,10.50
2023-03-22T02:35:23.243Z,10.50
2023-03-22T02:38:11.322Z,10.50
2023-03-22T02:41:09.155Z,10.50
2023-03-22T02:44:08.874Z,10.50
2023-03-22T02:47:01.257Z,10.40
2023-03-22T02:49:53.787Z,10.40
2023-03-22T02:52:46.860Z,10.40
2023-03-22T02:55:39.454Z,10.40
2023-03-22T02:58:17.986Z,10.40
2023-03-22T03:00:50.978Z,10.40
2023-03-22T03:03:19.360Z,10.30
2023-03-22T03:05:50.976Z,10.30
2023-03-22T03:08:19.752Z,10.30
2023-03-22T03:10:47.420Z,10.30
2023-03-22T03:13:16.268Z,10.30
2023-03-22T03:15:48.801Z,10.30
2023-03-22T03:18:40.662Z,10.30
2023-03-22T03:21:42.513Z,10.30
2023-03-22T03:24:35.224Z,10.30
2023-03-22T03:27:27.382Z,10.20
2023-03-22T03:30:08.263Z,10.20
2023-03-22T03:32:52.588Z,10.20
2023-03-22T03:35:27.991Z,10.20
2023-03-22T03:38:01.359Z,10.20
2023-03-22T03:40:31.241Z,10.20
2023-03-22T03:43:01.789Z,10.10
2023-03-22T03:45:29.639Z,10.10
2023-03-22T03:47:59.298Z,10.00
2023-03-22T03:50:27.061Z,10.00
2023-03-22T03:52:54.940Z,10.00
2023-03-22T03:55:22.979Z,10.00
2023-03-22T03:57:49.644Z,9.90
2023-03-22T04:00:17.239Z,10.00
2023-03-22T04:02:44.779Z,10.00
2023-03-22T04:05:13.388Z,10.00
2023-03-22T04:07:40.354Z,9.90
2023-03-22T04:10:07.914Z,9.90
2023-03-22T04:12:34.688Z,9.90
2023-03-22T04:15:01.496Z,9.80
2023-03-22T04:17:29.350Z,9.80
2023-03-22T04:19:56.598Z,9.80
2023-03-22T04:22:23.903Z,9.80
2023-03-22T04:24:50.525Z,9.70
2023-03-22T04:27:18.153Z,9.70
2023-03-22T04:29:52.215Z,9.70
2023-03-22T04:32:19.204Z,9.60
2023-03-22T04:34:46.493Z,9.60
2023-03-22T04:37:14.494Z,9.60
2023-03-22T04:39:41.729Z,9.60
2023-03-22T04:42:08.982Z,9.50
2023-03-22T04:44:36.005Z,9.50
2023-03-22T04:47:02.810Z,9.50
2023-03-22T04:49:29.442Z,9.50
2023-03-22T04:51:56.303Z,9.50
2023-03-22T04:54:23.782Z,9.40
2023-03-22T04:56:50.532Z,9.40
2023-03-22T04:59:20.170Z,9.40
2023-03-22T05:01:51.412Z,9.40
2023-03-22T05:04:19.133Z,9.40
2023-03-22T05:06:47.028Z,9.40
2023-03-22T05:09:14.351Z,9.40
2023-03-22T05:11:41.696Z,9.30
2023-03-22T05:14:09.300Z,9.30
2023-03-22T05:16:36.191Z,9.30
2023-03-22T05:19:03.007Z,9.20
2023-03-22T05:21:36.814Z,9.20
2023-03-22T05:24:03.620Z,9.20
2023-03-22T05:26:30.393Z,9.20
2023-03-22T05:28:57.078Z,9.20
2023-03-22T05:31:23.795Z,9.20
2023-03-22T05:33:53.368Z,9.20
2023-03-22T05:36:21.459Z,9.20
2023-03-22T05:38:48.168Z,9.20
2023-03-22T05:41:15.312Z,9.10
2023-03-22T05:43:42.299Z,9.20
2023-03-22T05:46:10.948Z,9.10
2023-03-22T05:48:39.131Z,9.10
2023-03-22T05:51:07.647Z,9.10
2023-03-22T05:53:34.704Z,9.10
2023-03-22T05:56:01.881Z,9.10
2023-03-22T05:58:30.780Z,9.10
2023-03-22T06:01:01.019Z,9.10
2023-03-22T06:03:28.400Z,9.10
2023-03-22T06:05:55.167Z,9.10
2023-03-22T06:08:26.063Z,9.10
2023-03-22T06:10:53.926Z,9.10
2023-03-22T06:13:21.398Z,9.20
2023-03-22T06:15:48.086Z,9.20
2023-03-22T06:18:14.670Z,9.20
2023-03-22T06:20:41.925Z,9.20
2023-03-22T06:23:08.779Z,9.30
2023-03-22T06:25:35.729Z,9.30
2023-03-22T06:28:02.874Z,9.30
2023-03-22T06:30:29.646Z,9.30
2023-03-22T06:33:00.476Z,9.40
2023-03-22T06:35:27.791Z,9.40
2023-03-22T06:37:54.558Z,9.40
2023-03-22T06:40:21.238Z,9.50
2023-03-22T06:42:48.274Z,9.50
2023-03-22T06:45:16.447Z,9.60
2023-03-22T06:47:44.185Z,9.60
2023-03-22T06:50:11.154Z,9.70
2023-03-22T06:52:37.864Z,9.70
2023-03-22T06:55:04.864Z,9.80
2023-03-22T06:57:31.521Z,9.90
2023-03-22T06:59:58.159Z,10.00
2023-03-22T07:02:25.090Z,10.00
2023-03-22T07:04:51.768Z,10.10
2023-03-22T07:07:18.495Z,10.30
2023-03-22T07:09:45.307Z,10.40
2023-03-22T07:12:11.969Z,10.60
2023-03-22T07:14:39.057Z,10.60
2023-03-22T07:17:05.770Z,10.70
2023-03-22T07:19:32.498Z,10.80
2023-03-22T07:21:59.120Z,10.90
2023-03-22T07:24:25.824Z,11.00
2023-03-22T07:26:52.468Z,11.10
2023-03-22T07:29:19.106Z,11.20
2023-03-22T07:31:45.847Z,11.20
2023-03-22T07:34:12.671Z,11.30
2023-03-22T07:36:39.286Z,11.40
2023-03-22T07:39:06.014Z,11.40
2023-03-22T07:41:32.896Z,11.50
2023-03-22T07:44:15.035Z,11.60
2023-03-22T07:46:43.575Z,11.60
2023-03-22T07:49:10.300Z,11.60
2023-03-22T07:51:36.925Z,11.70
2023-03-22T07:54:04.445Z,11.80
2023-03-22T07:56:31.867Z,11.90
2023-03-22T07:58:58.653Z,11.90
2023-03-22T08:01:25.696Z,12.00
2023-03-22T08:03:52.482Z,12.10
2023-03-22T08:06:21.421Z,12.10
2023-03-22T08:08:48.280Z,12.20
2023-03-22T08:11:15.014Z,12.30
2023-03-22T08:13:41.839Z,12.30
2023-03-22T08:16:08.666Z,12.40
2023-03-22T08:18:35.468Z,12.50
2023-03-22T08:21:02.111Z,12.50
2023-03-22T08:23:40.911Z,12.60
2023-03-22T08:26:08.752Z,12.70
2023-03-22T08:28:35.537Z,12.80
2023-03-22T08:31:02.345Z,12.90
2023-03-22T08:33:29.043Z,13.00
2023-03-22T08:36:10.140Z,13.10
2023-03-22T08:38:36.768Z,13.20
2023-03-22T08:41:03.534Z,13.20
2023-03-22T08:43:30.244Z,13.30
2023-03-22T08:45:57.478Z,13.40
2023-03-22T08:48:24.878Z,13.40
2023-03-22T08:50:51.667Z,13.50
2023-03-22T08:53:18.298Z,13.60
2023-03-22T08:55:45.065Z,13.70
2023-03-22T08:58:13.345Z,13.70
2023-03-22T09:00:48.627Z,13.80
2023-03-22T09:03:16.171Z,13.80
2023-03-22T09:05:42.945Z,13.80
2023-03-22T09:08:18.138Z,13.90
2023-03-22T09:10:52.007Z,13.90
2023-03-22T09:13:19.196Z,13.90
2023-03-22T09:15:47.244Z,14.00
2023-03-22T09:18:15.241Z,14.00
2023-03-22T09:20:42.699Z,14.00
2023-03-22T09:23:09.725Z,14.10
2023-03-22T09:25:36.639Z,14.10
2023-03-22T09:28:04.175Z,14.10
2023-03-22T09:30:31.186Z,14.20
2023-03-22T09:32:57.821Z,14.30
2023-03-22T09:35:24.554Z,14.30
2023-03-22T09:37:53.398Z,14.30
2023-03-22T09:40:21.819Z,14.40
2023-03-22T09:42:51.289Z,14.40
2023-03-22T09:45:32.133Z,14.50
2023-03-22T09:47:59.764Z,14.50
2023-03-22T09:50:29.936Z,14.60
2023-03-22T09:52:57.051Z,14.60
2023-03-22T09:55:33.353Z,14.60
2023-03-22T09:58:23.047Z,14.70
2023-03-22T10:00:57.277Z,14.70
2023-03-22T10:03:56.888Z,14.70
2023-03-22T10:06:26.876Z,14.80
2023-03-22T10:08:54.309Z,14.80
2023-03-22T10:11:46.382Z,14.90
2023-03-22T10:14:23.424Z,14.90
2023-03-22T10:16:52.889Z,14.90
2023-03-22T10:19:29.822Z,15.00
2023-03-22T10:22:01.415Z,15.10
2023-03-22T10:24:38.182Z,15.10
2023-03-22T10:27:16.860Z,15.20
2023-03-22T10:29:56.929Z,15.30
2023-03-22T10:32:31.927Z,15.30
2023-03-22T10:34:58.669Z,15.40
2023-03-22T10:37:32.829Z,15.50
2023-03-22T10:40:06.154Z,15.60
2023-03-22T10:42:36.626Z,15.60
2023-03-22T10:45:07.927Z,15.70
2023-03-22T10:47:50.229Z,15.70
2023-03-22T10:50:36.528Z,15.70
2023-03-22T10:53:25.845Z,15.70
2023-03-22T10:55:52.829Z,15.80
2023-03-22T10:58:21.541Z,15.80
2023-03-22T11:00:53.601Z,15.80
2023-03-22T11:03:36.368Z,15.90
2023-03-22T11:06:17.363Z,15.90
2023-03-22T11:08:54.358Z,15.90
2023-03-22T11:11:23.785Z,16.00
2023-03-22T11:13:58.964Z,16.00
2023-03-22T11:16:26.197Z,16.00
2023-03-22T11:18:54.258Z,16.00
2023-03-22T11:21:27.945Z,16.00
2023-03-22T11:24:01.470Z,16.10
2023-03-22T11:26:35.674Z,16.10
2023-03-22T11:29:13.107Z,16.20
2023-03-22T11:31:59.862Z,16.20
2023-03-22T11:34:30.707Z,16.20
2023-03-22T11:37:00.831Z,16.20
2023-03-22T11:39:29.167Z,16.30
2023-03-22T11:42:01.780Z,16.30
2023-03-22T11:44:33.039Z,16.40
2023-03-22T11:47:01.966Z,16.50
2023-03-22T11:49:44.929Z,16.50
2023-03-22T11:52:17.415Z,16.50
2023-03-22T11:54:46.059Z,16.50
2023-03-22T11:57:27.760Z,16.60
2023-03-22T12:00:19.820Z,16.60
2023-03-22T12:02:58.317Z,16.60
2023-03-22T12:05:28.410Z,16.60
2023-03-22T12:08:18.703Z,16.60
2023-03-22T12:10:47.492Z,16.60
2023-03-22T12:13:38.528Z,16.70
2023-03-22T12:16:07.869Z,16.70
2023-03-22T12:18:41.386Z,16.70
2023-03-22T12:21:10.245Z,16.70
2023-03-22T12:23:37.164Z,16.70
2023-03-22T12:26:21.556Z,16.70
2023-03-22T12:28:58.634Z,16.80
2023-03-22T12:31:32.539Z,16.80
2023-03-22T12:34:04.527Z,16.80
2023-03-22T12:36:49.153Z,16.80
2023-03-22T12:39:42.956Z,16.90
2023-03-22T12:42:28.192Z,17.00
2023-03-22T12:45:06.830Z,17.10
2023-03-22T12:47:45.870Z,17.10
2023-03-22T12:50:16.937Z,17.20
2023-03-22T12:52:49.675Z,17.20
2023-03-22T12:55:40.386Z,17.30
2023-03-22T12:58:08.740Z,17.30
2023-03-22T13:00:56.284Z,17.40
2023-03-22T13:03:30.034Z,17.40
2023-03-22T13:06:03.919Z,17.40
2023-03-22T13:09:09.180Z,17.40
2023-03-22T13:11:36.405Z,17.40
2023-03-22T13:14:03.090Z,17.40
2023-03-22T13:16:49.490Z,17.40
2023-03-22T13:20:13.631Z,17.40
2023-03-22T13:22:43.573Z,17.50
2023-03-22T13:25:12.374Z,17.60
2023-03-22T13:27:45.048Z,17.70
2023-03-22T13:30:21.632Z,17.80
2023-03-22T13:33:08.861Z,17.90
2023-03-22T13:35:52.768Z,18.00
2023-03-22T13:38:23.714Z,18.10
2023-03-22T13:40:59.449Z,18.20
2023-03-22T13:43:28.993Z,18.20
2023-03-22T13:46:27.360Z,18.40
2023-03-22T13:49:18.055Z,18.40
2023-03-22T13:51:45.329Z,18.50
2023-03-22T13:54:18.628Z,18.50
2023-03-22T13:57:00.190Z,18.50
2023-03-22T13:59:29.847Z,18.50
2023-03-22T14:02:15.605Z,18.60
2023-03-22T14:04:50.127Z,18.50
2023-03-22T14:07:35.322Z,18.50
2023-03-22T14:10:13.928Z,18.50
2023-03-22T14:12:52.451Z,18.50
2023-03-22T14:15:23.520Z,18.50
2023-03-22T14:18:04.073Z,18.40
2023-03-22T14:20:35.463Z,18.40
